Time;durP1;ratioP1;P1;durP2;ratioP2;P2;SDS_P1;SDS_P2;PMS_P1;PMS_P2;Temp;Humidity;BMP_temperature;BMP_pressure;BME280_temperature;BME280_humidity;BME280_pressure;Samples;Min_cycle;Max_cycle;Signal;HPM_P1;HPM_P2
2024/03/02 00:02:03;;;;;;;;;;;;;;;;;;5042233;28;19967;-77
2024/03/02 00:04:29;;;;;;;;;;;;;;;;;;5051354;28;19913;-78
2024/03/02 00:06:54;;;;;;;;;;;;;;;;;;5045300;28;19967;-77
2024/03/02 00:09:20;;;;;;;;;;;;;;;;;;5071334;28;19944;-76
2024/03/02 00:11:46;;;;;;;;;;;;;;;;;;5069395;28;19989;-77
2024/03/02 00:14:12;;;;;;;;;;;;;;;;;;5051094;28;19963;-76
2024/03/02 00:16:38;;;;;;;;;;;;;;;;;;5047233;28;20473;-76
2024/03/02 00:19:05;;;;;;;;;;;;;;;;;;5047990;28;19928;-76
2024/03/02 00:21:31;;;;;;;;;;;;;;;;;;5048675;28;19917;-76
2024/03/02 00:23:57;;;;;;;;;;;;;;;;;;5060057;28;19914;-78
2024/03/02 00:26:22;;;;;;;;;;;;;;;;;;5066610;28;20003;-77
2024/03/02 00:28:50;;;;;;;;;;;;;;;;;;5048654;28;20359;-77
2024/03/02 00:31:16;;;;;;;;;;;;;;;;;;5050659;28;20371;-76
2024/03/02 00:33:42;;;;;;;;;;;;;;;;;;5049934;28;19940;-77
2024/03/02 00:36:08;;;;;;;;;;;;;;;;;;5047830;28;19913;-77
2024/03/02 00:38:34;;;;;;;;;;;;;;;;;;5051839;28;20008;-77
2024/03/02 00:41:00;;;;;;;;;;;;;;;;;;5046592;28;19917;-76
2024/03/02 00:43:26;;;;;;;;;;;;;;;;;;5050040;28;19971;-77
2024/03/02 00:45:52;;;;;;;;;;;;;;;;;;5046940;28;19952;-77
2024/03/02 00:48:18;;;;;;;;;;;;;;;;;;5043095;28;19972;-76
2024/03/02 00:50:44;;;;;;;;;;;;;;;;;;5044915;28;19959;-76
2024/03/02 00:53:10;;;;;;;;;;;;;;;;;;5045943;28;19966;-77
2024/03/02 00:55:36;;;;;;;;;;;;;;;;;;5045743;28;19920;-77
2024/03/02 00:58:02;;;;;;;;;;;;;;;;;;5042523;28;20566;-77
2024/03/02 01:00:28;;;;;;;;;;;;;;;;;;5044784;28;19965;-77
2024/03/02 01:02:54;;;;;;;;;;;;;;;;;;5042296;28;19956;-76
2024/03/02 01:05:20;;;;;;;;;;;;;;;;;;5046497;28;19912;-77
2024/03/02 01:07:46;;;;;;;;;;;;;;;;;;5044696;28;19920;-76
2024/03/02 01:10:12;;;;;;;;;;;;;;;;;;5039118;28;20280;-76
2024/03/02 01:12:39;;;;;;;;;;;;;;;;;;5045016;28;19924;-77
2024/03/02 01:15:07;;;;;;;;;;;;;;;;;;5048189;28;19913;-77
2024/03/02 01:17:33;;;;;;;;;;;;;;;;;;5044026;28;19967;-77
2024/03/02 01:19:59;;;;;;;;;;;;;;;;;;5042661;28;19916;-77
2024/03/02 01:22:25;;;;;;;;;;;;;;;;;;5039263;28;19932;-77
2024/03/02 01:24:51;;;;;;;;;;;;;;;;;;5045130;28;19999;-77
2024/03/02 01:27:17;;;;;;;;;;;;;;;;;;5047593;28;20386;-77
2024/03/02 01:29:43;;;;;;;;;;;;;;;;;;5047604;28;19917;-77
2024/03/02 01:32:08;;;;;;;;;;;;;;;;;;5053251;28;19920;-77
2024/03/02 01:34:34;;;;;;;;;;;;;;;;;;5044014;28;19948;-77
2024/03/02 01:37:00;;;;;;;;;;;;;;;;;;5038479;28;19959;-77
2024/03/02 01:39:26;;;;;;;;;;;;;;;;;;5038434;28;19975;-77
2024/03/02 01:41:52;;;;;;;;;;;;;;;;;;5038876;28;19923;-77
2024/03/02 01:44:18;;;;;;;;;;;;;;;;;;5042161;28;19920;-77
2024/03/02 01:46:44;;;;;;;;;;;;;;;;;;5043258;28;20519;-77
2024/03/02 01:49:09;;;;;;;;;;;;;;;;;;5039855;28;19932;-77
2024/03/02 01:51:35;;;;;;;;;;;;;;;;;;5036122;28;19978;-77
2024/03/02 01:54:01;;;;;;;;;;;;;;;;;;5046067;28;19917;-77
2024/03/02 01:56:27;;;;;;;;;;;;;;;;;;5042005;28;20385;-77
2024/03/02 01:58:53;;;;;;;;;;;;;;;;;;5043132;28;20334;-77
2024/03/02 02:01:19;;;;;;;;;;;;;;;;;;5037930;28;20011;-77
2024/03/02 02:03:45;;;;;;;;;;;;;;;;;;5038857;28;20276;-77
2024/03/02 02:06:11;;;;;;;;;;;;;;;;;;5043434;28;19912;-77
2024/03/02 02:08:37;;;;;;;;;;;;;;;;;;5044931;28;20013;-77
2024/03/02 02:11:02;;;;;;;;;;;;;;;;;;5046985;28;19940;-77
2024/03/02 02:13:28;;;;;;;;;;;;;;;;;;5047542;28;20406;-77
2024/03/02 02:15:54;;;;;;;;;;;;;;;;;;5044447;28;20364;-77
2024/03/02 02:18:20;;;;;;;;;;;;;;;;;;5046018;28;20387;-77
2024/03/02 02:20:46;;;;;;;;;;;;;;;;;;5041732;28;20444;-76
2024/03/02 02:23:13;;;;;;;;;;;;;;;;;;5038321;28;20440;-78
2024/03/02 02:25:39;;;;;;;;;;;;;;;;;;5043890;28;19921;-77
2024/03/02 02:28:05;;;;;;;;;;;;;;;;;;5043739;28;19913;-77
2024/03/02 02:30:31;;;;;;;;;;;;;;;;;;5040852;28;19936;-78
2024/03/02 02:32:56;;;;;;;;;;;;;;;;;;5054119;28;20027;-78
2024/03/02 02:35:24;;;;;;;;;;;;;;;;;;5044288;28;19913;-78
2024/03/02 02:37:49;;;;;;;;;;;;;;;;;;5035800;28;19920;-78
2024/03/02 02:40:15;;;;;;;;;;;;;;;;;;5045742;28;19913;-78
2024/03/02 02:42:41;;;;;;;;;;;;;;;;;;5046743;28;19917;-78
2024/03/02 02:45:07;;;;;;;;;;;;;;;;;;5049130;28;20429;-78
2024/03/02 02:47:36;;;;;;;;;;;;;;;;;;5036434;28;19960;-79
2024/03/02 02:50:03;;;;;;;;;;;;;;;;;;5045010;28;20283;-78
2024/03/02 02:52:29;;;;;;;;;;;;;;;;;;5045169;28;20488;-78
2024/03/02 02:54:55;;;;;;;;;;;;;;;;;;5046913;28;20415;-78
2024/03/02 02:57:20;;;;;;;;;;;;;;;;;;5046212;28;20012;-78
2024/03/02 02:59:46;;;;;;;;;;;;;;;;;;5036751;28;19920;-78
2024/03/02 03:02:12;;;;;;;;;;;;;;;;;;5037028;28;20377;-78
2024/03/02 03:04:38;;;;;;;;;;;;;;;;;;5039445;28;20376;-78
2024/03/02 03:07:04;;;;;;;;;;;;;;;;;;5039038;28;19913;-78
2024/03/02 03:09:30;;;;;;;;;;;;;;;;;;5045851;28;20406;-76
2024/03/02 03:11:55;;;;;;;;;;;;;;;;;;5047967;28;19970;-76
2024/03/02 03:14:21;;;;;;;;;;;;;;;;;;5041745;28;19913;-77
2024/03/02 03:16:48;;;;;;;;;;;;;;;;;;5044565;28;19913;-77
2024/03/02 03:19:14;;;;;;;;;;;;;;;;;;5052890;28;20279;-76
2024/03/02 03:21:40;;;;;;;;;;;;;;;;;;5043289;28;19916;-76
2024/03/02 03:24:06;;;;;;;;;;;;;;;;;;5049714;28;20394;-76
2024/03/02 03:26:31;;;;;;;;;;;;;;;;;;5049409;28;20657;-76
2024/03/02 03:28:58;;;;;;;;;;;;;;;;;;5045430;28;20360;-76
2024/03/02 03:31:23;;;;;;;;;;;;;;;;;;5044651;28;19996;-76
2024/03/02 03:33:49;;;;;;;;;;;;;;;;;;5049812;28;20051;-76
2024/03/02 03:36:15;;;;;;;;;;;;;;;;;;5045656;28;19982;-76
2024/03/02 03:38:41;;;;;;;;;;;;;;;;;;5038271;28;19912;-76
2024/03/02 03:41:07;;;;;;;;;;;;;;;;;;5045028;28;19913;-76
2024/03/02 03:43:33;;;;;;;;;;;;;;;;;;5047995;28;20012;-76
2024/03/02 03:45:58;;;;;;;;;;;;;;;;;;5045421;28;20288;-76
2024/03/02 03:48:30;;;;;;;;;;;;;;;;;;5050779;28;19913;-76
2024/03/02 03:50:56;;;;;;;;;;;;;;;;;;5048957;28;20379;-78
2024/03/02 03:53:22;;;;;;;;;;;;;;;;;;5042027;28;19927;-78
2024/03/02 03:55:49;;;;;;;;;;;;;;;;;;5047684;28;20375;-78
2024/03/02 03:58:16;;;;;;;;;;;;;;;;;;5049656;28;19916;-78
2024/03/02 04:00:42;;;;;;;;;;;;;;;;;;5046787;28;19921;-78
2024/03/02 04:03:08;;;;;;;;;;;;;;;;;;5044856;28;19927;-78
2024/03/02 04:05:33;;;;;;;;;;;;;;;;;;5048709;28;19917;-78
2024/03/02 04:08:00;;;;;;;;;;;;;;;;;;5047777;28;19921;-78
2024/03/02 04:10:26;;;;;;;;;;;;;;;;;;5049349;28;19917;-78
2024/03/02 04:12:52;;;;;;;;;;;;;;;;;;5049525;28;19913;-78
2024/03/02 04:15:18;;;;;;;;;;;;;;;;;;5049053;28;20693;-78
2024/03/02 04:17:44;;;;;;;;;;;;;;;;;;5043290;28;19962;-77
2024/03/02 04:20:12;;;;;;;;;;;;;;;;;;5050273;28;19921;-77
2024/03/02 04:22:38;;;;;;;;;;;;;;;;;;5051117;28;19924;-76
2024/03/02 04:25:04;;;;;;;;;;;;;;;;;;5041891;28;19913;-76
2024/03/02 04:27:30;;;;;;;;;;;;;;;;;;5038878;28;20371;-76
2024/03/02 04:29:56;;;;;;;;;;;;;;;;;;5052407;28;19927;-76
2024/03/02 04:32:22;;;;;;;;;;;;;;;;;;5046185;28;20077;-76
2024/03/02 04:34:48;;;;;;;;;;;;;;;;;;5040858;28;19913;-76
2024/03/02 04:37:14;;;;;;;;;;;;;;;;;;5040944;28;19956;-76
2024/03/02 04:39:40;;;;;;;;;;;;;;;;;;5038879;28;19919;-77
2024/03/02 04:42:06;;;;;;;;;;;;;;;;;;5043090;28;19920;-77
2024/03/02 04:44:32;;;;;;;;;;;;;;;;;;5050519;28;19909;-77
2024/03/02 04:46:57;;;;;;;;;;;;;;;;;;5049667;28;20426;-77
2024/03/02 04:49:23;;;;;;;;;;;;;;;;;;5045881;28;19974;-77
2024/03/02 04:51:49;;;;;;;;;;;;;;;;;;5042603;28;20306;-78
2024/03/02 04:54:15;;;;;;;;;;;;;;;;;;5039225;28;19912;-77
2024/03/02 04:56:44;;;;;;;;;;;;;;;;;;5049850;28;19975;-78
2024/03/02 04:59:10;;;;;;;;;;;;;;;;;;5044476;28;19921;-78
2024/03/02 05:01:36;;;;;;;;;;;;;;;;;;5036858;28;19920;-77
2024/03/02 05:04:01;;;;;;;;;;;;;;;;;;5040279;28;19919;-77
2024/03/02 05:06:27;;;;;;;;;;;;;;;;;;5049964;28;19962;-78
2024/03/02 05:08:53;;;;;;;;;;;;;;;;;;5045798;28;19912;-78
2024/03/02 05:14:03;;;;;;;;;;;;;;;;;;5038330;28;19944;-78
2024/03/02 05:16:29;;;;;;;;;;;;;;;;;;5048708;28;19955;-78
2024/03/02 05:18:55;;;;;;;;;;;;;;;;;;5048403;28;19929;-78
2024/03/02 05:21:21;;;;;;;;;;;;;;;;;;5035142;28;19913;-78
2024/03/02 05:23:47;;;;;;;;;;;;;;;;;;5038672;28;19966;-77
2024/03/02 05:26:13;;;;;;;;;;;;;;;;;;5046742;28;20015;-78
2024/03/02 05:28:39;;;;;;;;;;;;;;;;;;5045329;28;20440;-78
2024/03/02 05:31:05;;;;;;;;;;;;;;;;;;5040544;28;19917;-77
2024/03/02 05:33:32;;;;;;;;;;;;;;;;;;5048319;28;19956;-79
2024/03/02 05:35:58;;;;;;;;;;;;;;;;;;5047499;28;19977;-78
2024/03/02 05:38:24;;;;;;;;;;;;;;;;;;5045282;28;19912;-78
2024/03/02 05:40:50;;;;;;;;;;;;;;;;;;5042459;28;19917;-78
2024/03/02 05:43:16;;;;;;;;;;;;;;;;;;5043862;28;19917;-78
2024/03/02 05:45:42;;;;;;;;;;;;;;;;;;5044746;28;19923;-78
2024/03/02 05:48:09;;;;;;;;;;;;;;;;;;5048266;28;20015;-79
2024/03/02 05:50:34;;;;;;;;;;;;;;;;;;5045426;28;20006;-78
2024/03/02 05:53:00;;;;;;;;;;;;;;;;;;5041104;28;19956;-78
2024/03/02 05:55:26;;;;;;;;;;;;;;;;;;5039999;28;19917;-78
2024/03/02 06:00:24;;;;;;;;;;;;;;;;;;5043086;28;20355;-78
2024/03/02 06:02:50;;;;;;;;;;;;;;;;;;5037846;28;19952;-78
2024/03/02 06:05:17;;;;;;;;;;;;;;;;;;5044144;28;19921;-79
2024/03/02 06:07:43;;;;;;;;;;;;;;;;;;5049058;28;19916;-78
2024/03/02 06:10:09;;;;;;;;;;;;;;;;;;5046620;28;20007;-78
2024/03/02 06:12:35;;;;;;;;;;;;;;;;;;5048542;28;19920;-78
2024/03/02 06:15:01;;;;;;;;;;;;;;;;;;5036482;28;19920;-79
2024/03/02 06:17:27;;;;;;;;;;;;;;;;;;5049412;28;20303;-78
2024/03/02 06:19:53;;;;;;;;;;;;;;;;;;5040170;28;19929;-78
2024/03/02 06:22:19;;;;;;;;;;;;;;;;;;5034364;28;20430;-79
2024/03/02 06:24:45;;;;;;;;;;;;;;;;;;5033402;28;19939;-79
2024/03/02 06:27:12;;;;;;;;;;;;;;;;;;5045118;28;21245;-79
2024/03/02 06:29:38;;;;;;;;;;;;;;;;;;5040522;28;19913;-79
2024/03/02 06:32:04;;;;;;;;;;;;;;;;;;5045937;28;19963;-79
2024/03/02 06:34:30;;;;;;;;;;;;;;;;;;5047700;28;19967;-79
2024/03/02 06:36:56;;;;;;;;;;;;;;;;;;5045615;28;19999;-79
2024/03/02 06:39:21;;;;;;;;;;;;;;;;;;5039464;28;19913;-79
2024/03/02 06:41:47;;;;;;;;;;;;;;;;;;5040401;28;20004;-77
2024/03/02 06:44:13;;;;;;;;;;;;;;;;;;5045467;28;19913;-78
2024/03/02 06:46:39;;;;;;;;;;;;;;;;;;5048958;28;19951;-79
2024/03/02 06:49:05;;;;;;;;;;;;;;;;;;5042206;28;19917;-79
2024/03/02 06:51:31;;;;;;;;;;;;;;;;;;5043616;28;19913;-79
2024/03/02 06:53:56;;;;;;;;;;;;;;;;;;5048322;28;20496;-79
2024/03/02 06:56:22;;;;;;;;;;;;;;;;;;5045190;28;20414;-78
2024/03/02 06:58:48;;;;;;;;;;;;;;;;;;5036433;28;19913;-78
2024/03/02 07:01:14;;;;;;;;;;;;;;;;;;5044327;28;19920;-78
2024/03/02 07:03:40;;;;;;;;;;;;;;;;;;5044559;28;19971;-78
2024/03/02 07:06:06;;;;;;;;;;;;;;;;;;5040608;28;20385;-78
2024/03/02 07:08:32;;;;;;;;;;;;;;;;;;5042471;28;19917;-78
2024/03/02 07:10:58;;;;;;;;;;;;;;;;;;5041544;28;19940;-78
2024/03/02 07:13:24;;;;;;;;;;;;;;;;;;5044872;28;19913;-79
2024/03/02 07:18:37;;;;;;;;;;;;;;;;;;5041832;28;19929;-79
2024/03/02 07:21:03;;;;;;;;;;;;;;;;;;5040321;28;20406;-79
2024/03/02 07:23:30;;;;;;;;;;;;;;;;;;5046813;28;19917;-79
2024/03/02 07:25:56;;;;;;;;;;;;;;;;;;5045187;28;19921;-79
2024/03/02 07:28:22;;;;;;;;;;;;;;;;;;5045481;28;19921;-76
2024/03/02 07:30:48;;;;;;;;;;;;;;;;;;5045279;28;19920;-76
2024/03/02 07:33:16;;;;;;;;;;;;;;;;;;5041351;28;20260;-76
2024/03/02 07:35:43;;;;;;;;;;;;;;;;;;5045582;28;19919;-76
2024/03/02 07:38:08;;;;;;;;;;;;;;;;;;5043065;28;20547;-77
2024/03/02 07:40:34;;;;;;;;;;;;;;;;;;5039195;28;20406;-77
2024/03/02 07:43:00;;;;;;;;;;;;;;;;;;5043835;28;20472;-77
2024/03/02 07:45:26;;;;;;;;;;;;;;;;;;5036671;28;19927;-78
2024/03/02 07:47:52;;;;;;;;;;;;;;;;;;5044108;28;19995;-78
2024/03/02 07:50:19;;;;;;;;;;;;;;;;;;5047026;28;19909;-78
2024/03/02 07:52:45;;;;;;;;;;;;;;;;;;5043323;28;19916;-77
2024/03/02 07:55:11;;;;;;;;;;;;;;;;;;5045113;28;19920;-78
2024/03/02 07:57:37;;;;;;;;;;;;;;;;;;5042069;28;19916;-77
2024/03/02 08:00:03;;;;;;;;;;;;;;;;;;5046999;28;19917;-78
2024/03/02 08:02:29;;;;;;;;;;;;;;;;;;5041331;28;20004;-78
2024/03/02 08:04:58;;;;;;;;;;;;;;;;;;5043851;28;20260;-79
2024/03/02 08:07:24;;;;;;;;;;;;;;;;;;5034682;28;19970;-78
2024/03/02 08:09:49;;;;;;;;;;;;;;;;;;5050710;28;19952;-79
2024/03/02 08:12:16;;;;;;;;;;;;;;;;;;5044729;28;19998;-79
2024/03/02 08:14:41;;;;;;;;;;;;;;;;;;5040622;28;20452;-79
2024/03/02 08:17:09;;;;;;;;;;;;;;;;;;5046143;28;20011;-80
2024/03/02 08:19:35;;;;;;;;;;;;;;;;;;5044175;28;20079;-78
2024/03/02 08:22:01;;;;;;;;;;;;;;;;;;5047665;28;20423;-79
2024/03/02 08:24:26;;;;;;;;;;;;;;;;;;5041881;28;20639;-80
2024/03/02 08:26:52;;;;;;;;;;;;;;;;;;5047638;28;20478;-79
2024/03/02 08:29:18;;;;;;;;;;;;;;;;;;5045983;28;19917;-84
2024/03/02 08:31:44;;;;;;;;;;;;;;;;;;5050538;28;19920;-80
2024/03/02 08:34:10;;;;;;;;;;;;;;;;;;5045617;28;20004;-90
2024/03/02 08:36:36;;;;;;;;;;;;;;;;;;5039288;28;19917;-85
2024/03/02 08:39:03;;;;;;;;;;;;;;;;;;5062096;28;20404;-85
2024/03/02 08:41:28;;;;;;;;;;;;;;;;;;5051096;28;19916;-84
2024/03/02 08:43:54;;;;;;;;;;;;;;;;;;5054300;28;20275;-86
2024/03/02 08:46:20;;;;;;;;;;;;;;;;;;5043280;28;20279;-85
2024/03/02 08:48:46;;;;;;;;;;;;;;;;;;5046047;28;19939;-86
2024/03/02 08:51:12;;;;;;;;;;;;;;;;;;5046808;28;19949;-84
2024/03/02 08:53:38;;;;;;;;;;;;;;;;;;5049675;28;19913;-85
2024/03/02 08:56:05;;;;;;;;;;;;;;;;;;5043634;28;19944;-87
2024/03/02 08:58:31;;;;;;;;;;;;;;;;;;5047789;28;19913;-88
2024/03/02 09:00:57;;;;;;;;;;;;;;;;;;5044951;28;19935;-78
2024/03/02 09:03:23;;;;;;;;;;;;;;;;;;5037346;28;20011;-80
2024/03/02 09:05:48;;;;;;;;;;;;;;;;;;5045166;28;20457;-83
2024/03/02 09:08:14;;;;;;;;;;;;;;;;;;5060035;28;20291;-79
2024/03/02 09:10:40;;;;;;;;;;;;;;;;;;5043475;28;20297;-79
2024/03/02 09:13:06;;;;;;;;;;;;;;;;;;5037025;28;19921;-79
2024/03/02 09:15:32;;;;;;;;;;;;;;;;;;5048438;28;19920;-79
2024/03/02 09:17:58;;;;;;;;;;;;;;;;;;5046402;28;19956;-79
2024/03/02 09:20:24;;;;;;;;;;;;;;;;;;5049671;28;19909;-79
2024/03/02 09:22:50;;;;;;;;;;;;;;;;;;5052718;28;19921;-80
2024/03/02 09:25:16;;;;;;;;;;;;;;;;;;5049782;28;19917;-80
2024/03/02 09:27:41;;;;;;;;;;;;;;;;;;5048786;28;19916;-80
2024/03/02 09:30:07;;;;;;;;;;;;;;;;;;5049390;28;19921;-79
2024/03/02 09:32:33;;;;;;;;;;;;;;;;;;5039214;28;19937;-79
2024/03/02 09:34:59;;;;;;;;;;;;;;;;;;5048274;28;19931;-79
2024/03/02 09:37:26;;;;;;;;;;;;;;;;;;5049338;28;19913;-78
2024/03/02 09:39:52;;;;;;;;;;;;;;;;;;5047816;28;20020;-79
2024/03/02 09:42:18;;;;;;;;;;;;;;;;;;5039809;28;20008;-79
2024/03/02 09:44:44;;;;;;;;;;;;;;;;;;5040497;28;19917;-79
2024/03/02 09:47:10;;;;;;;;;;;;;;;;;;5048737;28;19913;-79
2024/03/02 09:49:36;;;;;;;;;;;;;;;;;;5041830;28;20263;-79
2024/03/02 09:52:02;;;;;;;;;;;;;;;;;;5046324;28;20168;-79
2024/03/02 09:54:28;;;;;;;;;;;;;;;;;;5038357;28;19920;-80
2024/03/02 09:56:54;;;;;;;;;;;;;;;;;;5041152;28;19913;-79
2024/03/02 09:59:20;;;;;;;;;;;;;;;;;;5057350;28;20305;-80
2024/03/02 10:01:46;;;;;;;;;;;;;;;;;;5043590;28;19952;-79
2024/03/02 10:04:11;;;;;;;;;;;;;;;;;;5055538;28;19923;-79
2024/03/02 10:06:37;;;;;;;;;;;;;;;;;;5054513;28;19967;-79
2024/03/02 10:09:03;;;;;;;;;;;;;;;;;;5042389;28;19917;-80
2024/03/02 10:11:30;;;;;;;;;;;;;;;;;;5047167;28;19935;-91
2024/03/02 10:13:56;;;;;;;;;;;;;;;;;;5059113;28;19917;-87
2024/03/02 10:16:22;;;;;;;;;;;;;;;;;;5037490;28;20054;-77
2024/03/02 10:18:48;;;;;;;;;;;;;;;;;;5045557;28;20003;-80
2024/03/02 10:21:14;;;;;;;;;;;;;;;;;;5056978;28;19924;-79
2024/03/02 10:23:40;;;;;;;;;;;;;;;;;;5048078;28;20283;-79
2024/03/02 10:26:06;;;;;;;;;;;;;;;;;;5043133;28;19931;-78
2024/03/02 10:28:32;;;;;;;;;;;;;;;;;;5045218;28;19931;-78
2024/03/02 10:30:58;;;;;;;;;;;;;;;;;;5044143;28;20016;-77
2024/03/02 10:33:24;;;;;;;;;;;;;;;;;;5046968;28;19917;-78
2024/03/02 10:35:50;;;;;;;;;;;;;;;;;;5046215;28;19917;-78
2024/03/02 10:38:16;;;;;;;;;;;;;;;;;;5039603;28;19923;-78
2024/03/02 10:40:43;;;;;;;;;;;;;;;;;;5042769;28;19938;-78
2024/03/02 10:43:08;;;;;;;;;;;;;;;;;;5042424;28;19921;-77
2024/03/02 10:45:34;;;;;;;;;;;;;;;;;;5047808;28;19916;-77
2024/03/02 10:48:00;;;;;;;;;;;;;;;;;;5045984;28;19913;-78
2024/03/02 10:50:26;;;;;;;;;;;;;;;;;;5046402;28;19960;-77
2024/03/02 10:52:52;;;;;;;;;;;;;;;;;;5040986;28;19967;-78
2024/03/02 10:55:18;;;;;;;;;;;;;;;;;;5047779;28;19978;-77
2024/03/02 10:57:44;;;;;;;;;;;;;;;;;;5036867;28;19913;-78
2024/03/02 11:00:14;;;;;;;;;;;;;;;;;;5041556;28;19913;-78
2024/03/02 11:02:40;;;;;;;;;;;;;;;;;;5044966;28;19920;-78
2024/03/02 11:05:08;;;;;;;;;;;;;;;;;;5046584;28;20462;-76
2024/03/02 11:07:34;;;;;;;;;;;;;;;;;;5040728;28;19917;-77
2024/03/02 11:10:00;;;;;;;;;;;;;;;;;;5043680;28;19966;-78
2024/03/02 11:12:26;;;;;;;;;;;;;;;;;;5036251;28;19923;-77
2024/03/02 11:14:52;;;;;;;;;;;;;;;;;;5050055;28;19981;-77
2024/03/02 11:17:20;;;;;;;;;;;;;;;;;;5039034;28;19982;-77
2024/03/02 11:19:46;;;;;;;;;;;;;;;;;;5023578;28;19929;-78
2024/03/02 11:22:12;;;;;;;;;;;;;;;;;;5016596;28;20469;-76
2024/03/02 11:24:37;;;;;;;;;;;;;;;;;;5017629;28;19917;-77
2024/03/02 11:27:13;;;;;;;;;;;;;;;;;;5017675;28;20000;-77
2024/03/02 11:29:38;;;;;;;;;;;;;;;;;;5025049;28;19996;-78
2024/03/02 11:32:04;;;;;;;;;;;;;;;;;;5020232;28;20059;-79
2024/03/02 11:34:30;;;;;;;;;;;;;;;;;;5030500;28;20116;-79
2024/03/02 11:36:56;;;;;;;;;;;;;;;;;;5026935;28;19922;-79
2024/03/02 11:39:22;;;;;;;;;;;;;;;;;;5028079;28;19917;-79
2024/03/02 11:41:48;;;;;;;;;;;;;;;;;;5017472;28;19917;-79
2024/03/02 11:44:14;;;;;;;;;;;;;;;;;;5033788;28;19917;-79
2024/03/02 11:46:40;;;;;;;;;;;;;;;;;;5029902;28;19913;-85
2024/03/02 11:49:05;;;;;;;;;;;;;;;;;;5033784;28;19921;-90
2024/03/02 11:51:31;;;;;;;;;;;;;;;;;;5019768;28;19913;-81
2024/03/02 11:53:57;;;;;;;;;;;;;;;;;;5025780;28;19921;-81
2024/03/02 11:56:23;;;;;;;;;;;;;;;;;;5025627;28;19917;-82
2024/03/02 11:58:51;;;;;;;;;;;;;;;;;;5025149;28;19920;-78
2024/03/02 12:01:16;;;;;;;;;;;;;;;;;;5019149;28;19918;-78
2024/03/02 12:03:42;;;;;;;;;;;;;;;;;;5031321;28;19921;-78
2024/03/02 12:06:08;;;;;;;;;;;;;;;;;;5021069;28;19980;-78
2024/03/02 12:08:34;;;;;;;;;;;;;;;;;;5033664;28;19913;-78
2024/03/02 12:11:03;;;;;;;;;;;;;;;;;;5029641;28;20440;-78
2024/03/02 12:13:29;;;;;;;;;;;;;;;;;;5026904;28;19949;-78
2024/03/02 12:15:57;;;;;;;;;;;;;;;;;;5023667;28;20375;-78
2024/03/02 12:18:23;;;;;;;;;;;;;;;;;;5021657;28;19929;-77
2024/03/02 12:20:52;;;;;;;;;;;;;;;;;;5031492;28;19970;-76
2024/03/02 12:23:17;;;;;;;;;;;;;;;;;;5042712;28;19914;-76
2024/03/02 12:25:43;;;;;;;;;;;;;;;;;;5030209;28;19960;-76
2024/03/02 12:28:09;;;;;;;;;;;;;;;;;;5037451;28;19921;-75
2024/03/02 12:30:37;;;;;;;;;;;;;;;;;;5029571;28;19946;-76
2024/03/02 12:33:03;;;;;;;;;;;;;;;;;;5028746;28;19917;-74
2024/03/02 12:35:29;;;;;;;;;;;;;;;;;;5029431;28;20249;-76
2024/03/02 12:37:55;;;;;;;;;;;;;;;;;;5039484;28;19909;-77
2024/03/02 12:40:22;;;;;;;;;;;;;;;;;;5028264;28;19923;-77
2024/03/02 12:42:48;;;;;;;;;;;;;;;;;;5030080;28;19917;-77
2024/03/02 12:45:14;;;;;;;;;;;;;;;;;;5032210;28;19913;-80
2024/03/02 12:47:39;;;;;;;;;;;;;;;;;;5035501;28;20406;-77
2024/03/02 12:50:06;;;;;;;;;;;;;;;;;;5038697;28;20253;-76
2024/03/02 12:52:35;;;;;;;;;;;;;;;;;;5025641;28;19914;-75
2024/03/02 12:55:02;;;;;;;;;;;;;;;;;;5029697;28;20011;-76
2024/03/02 12:57:28;;;;;;;;;;;;;;;;;;5026828;28;20014;-75
2024/03/02 12:59:54;;;;;;;;;;;;;;;;;;5022737;28;19964;-76
2024/03/02 13:02:20;;;;;;;;;;;;;;;;;;5023183;28;20385;-76
2024/03/02 13:04:46;;;;;;;;;;;;;;;;;;5024643;28;19917;-77
2024/03/02 13:07:13;;;;;;;;;;;;;;;;;;5027553;28;19920;-76
2024/03/02 13:09:40;;;;;;;;;;;;;;;;;;5023200;28;20004;-77
2024/03/02 13:12:05;;;;;;;;;;;;;;;;;;5029081;28;19913;-75
2024/03/02 13:14:31;;;;;;;;;;;;;;;;;;5027288;28;19920;-77
2024/03/02 13:16:57;;;;;;;;;;;;;;;;;;5020698;28;20575;-76
2024/03/02 13:19:23;;;;;;;;;;;;;;;;;;5044892;28;19942;-76
2024/03/02 13:21:51;;;;;;;;;;;;;;;;;;5057395;28;19921;-77
2024/03/02 13:24:16;;;;;;;;;;;;;;;;;;5039503;28;19920;-75
2024/03/02 13:26:42;;;;;;;;;;;;;;;;;;5047337;28;20383;-76
2024/03/02 13:29:09;;;;;;;;;;;;;;;;;;5048605;28;20320;-76
2024/03/02 13:31:34;;;;;;;;;;;;;;;;;;5047629;28;20416;-76
2024/03/02 13:34:00;;;;;;;;;;;;;;;;;;5043023;28;19912;-77
2024/03/02 13:36:26;;;;;;;;;;;;;;;;;;5048435;28;20428;-76
2024/03/02 13:38:52;;;;;;;;;;;;;;;;;;5054986;28;20326;-76
2024/03/02 13:41:18;;;;;;;;;;;;;;;;;;5049283;28;19913;-76
2024/03/02 13:43:45;;;;;;;;;;;;;;;;;;5039671;28;19917;-77
2024/03/02 13:46:11;;;;;;;;;;;;;;;;;;5044507;28;19948;-76
2024/03/02 13:48:37;;;;;;;;;;;;;;;;;;5041647;28;19959;-81
2024/03/02 13:51:04;;;;;;;;;;;;;;;;;;5045122;28;19924;-76
2024/03/02 13:53:29;;;;;;;;;;;;;;;;;;5044662;28;19912;-76
2024/03/02 13:55:55;;;;;;;;;;;;;;;;;;5046306;28;19994;-76
2024/03/02 13:58:21;;;;;;;;;;;;;;;;;;5047087;28;19921;-76
2024/03/02 14:00:47;;;;;;;;;;;;;;;;;;5043593;28;19913;-76
2024/03/02 14:03:13;;;;;;;;;;;;;;;;;;5047808;28;19924;-76
2024/03/02 14:05:39;;;;;;;;;;;;;;;;;;5055525;28;20367;-76
2024/03/02 14:08:05;;;;;;;;;;;;;;;;;;5045756;28;19917;-76
2024/03/02 14:10:31;;;;;;;;;;;;;;;;;;5042653;28;19932;-77
2024/03/02 14:12:57;;;;;;;;;;;;;;;;;;5049805;28;19917;-76
2024/03/02 14:15:23;;;;;;;;;;;;;;;;;;5047892;28;19928;-75
2024/03/02 14:17:49;;;;;;;;;;;;;;;;;;5036474;28;19913;-75
2024/03/02 14:20:20;;;;;;;;;;;;;;;;;;5041518;28;19920;-75
2024/03/02 14:22:46;;;;;;;;;;;;;;;;;;5044474;28;19931;-75
2024/03/02 14:25:12;;;;;;;;;;;;;;;;;;5040332;28;20383;-77
2024/03/02 14:27:38;;;;;;;;;;;;;;;;;;5046816;28;19919;-77
2024/03/02 14:30:05;;;;;;;;;;;;;;;;;;5054422;28;20442;-77
2024/03/02 14:32:31;;;;;;;;;;;;;;;;;;5045327;28;20460;-76
2024/03/02 14:34:57;;;;;;;;;;;;;;;;;;5051945;28;19920;-76
2024/03/02 14:37:22;;;;;;;;;;;;;;;;;;5051800;28;20270;-76
2024/03/02 14:39:49;;;;;;;;;;;;;;;;;;5050054;28;19921;-77
2024/03/02 14:42:15;;;;;;;;;;;;;;;;;;5048066;28;19923;-76
2024/03/02 14:44:41;;;;;;;;;;;;;;;;;;5044562;28;20004;-76
2024/03/02 14:47:07;;;;;;;;;;;;;;;;;;5049081;28;19966;-76
2024/03/02 14:49:35;;;;;;;;;;;;;;;;;;5048439;28;19948;-77
2024/03/02 14:52:01;;;;;;;;;;;;;;;;;;5040247;28;19917;-76
2024/03/02 14:54:27;;;;;;;;;;;;;;;;;;5047398;28;19996;-76
2024/03/02 14:56:53;;;;;;;;;;;;;;;;;;5043460;28;19920;-76
2024/03/02 14:59:19;;;;;;;;;;;;;;;;;;5048977;28;19917;-76
2024/03/02 15:01:46;;;;;;;;;;;;;;;;;;5041078;28;19974;-76
2024/03/02 15:04:12;;;;;;;;;;;;;;;;;;5038660;28;19924;-76
2024/03/02 15:06:37;;;;;;;;;;;;;;;;;;5044221;28;19921;-76
2024/03/02 15:09:03;;;;;;;;;;;;;;;;;;5036587;28;19944;-76
2024/03/02 15:11:30;;;;;;;;;;;;;;;;;;5042054;28;19921;-76
2024/03/02 15:13:55;;;;;;;;;;;;;;;;;;5044228;28;19951;-77
2024/03/02 15:16:21;;;;;;;;;;;;;;;;;;5041335;28;19959;-77
2024/03/02 15:18:47;;;;;;;;;;;;;;;;;;5048085;28;19936;-76
2024/03/02 15:21:13;;;;;;;;;;;;;;;;;;5048679;28;20406;-77
2024/03/02 15:23:39;;;;;;;;;;;;;;;;;;5049484;28;19921;-77
2024/03/02 15:26:05;;;;;;;;;;;;;;;;;;5047039;28;19917;-77
2024/03/02 15:28:31;;;;;;;;;;;;;;;;;;5050391;28;19913;-77
2024/03/02 15:30:57;;;;;;;;;;;;;;;;;;5047654;28;19912;-77
2024/03/02 15:33:29;;;;;;;;;;;;;;;;;;5047124;28;20298;-77
2024/03/02 15:35:55;;;;;;;;;;;;;;;;;;5049720;28;19913;-77
2024/03/02 15:38:21;;;;;;;;;;;;;;;;;;5048377;28;20490;-77
2024/03/02 15:40:46;;;;;;;;;;;;;;;;;;5048386;28;19916;-77
2024/03/02 15:43:12;;;;;;;;;;;;;;;;;;5048944;28;20068;-77
2024/03/02 15:45:38;;;;;;;;;;;;;;;;;;5047969;28;20035;-77
2024/03/02 15:48:04;;;;;;;;;;;;;;;;;;5050210;28;19919;-76
2024/03/02 15:50:32;;;;;;;;;;;;;;;;;;5046447;28;19920;-77
2024/03/02 15:53:02;;;;;;;;;;;;;;;;;;5048600;28;20299;-77
2024/03/02 15:55:28;;;;;;;;;;;;;;;;;;5048351;28;20033;-77
2024/03/02 15:57:54;;;;;;;;;;;;;;;;;;5046424;28;20383;-78
2024/03/02 16:00:20;;;;;;;;;;;;;;;;;;5039344;28;19920;-77
2024/03/02 16:02:45;;;;;;;;;;;;;;;;;;5044655;28;19917;-79
2024/03/02 16:05:12;;;;;;;;;;;;;;;;;;5044806;28;19917;-76
2024/03/02 16:07:38;;;;;;;;;;;;;;;;;;5049707;28;19913;-78
2024/03/02 16:10:07;;;;;;;;;;;;;;;;;;5043622;28;19920;-77
2024/03/02 16:12:33;;;;;;;;;;;;;;;;;;5056008;28;20006;-76
2024/03/02 16:14:59;;;;;;;;;;;;;;;;;;5046185;28;19963;-75
2024/03/02 16:17:25;;;;;;;;;;;;;;;;;;5052670;28;19912;-76
2024/03/02 16:19:50;;;;;;;;;;;;;;;;;;5046664;28;19925;-79
2024/03/02 16:22:16;;;;;;;;;;;;;;;;;;5046976;28;19921;-78
2024/03/02 16:24:42;;;;;;;;;;;;;;;;;;5044125;28;19920;-80
2024/03/02 16:27:08;;;;;;;;;;;;;;;;;;5045872;28;19917;-81
2024/03/02 16:29:34;;;;;;;;;;;;;;;;;;5047778;28;19923;-77
2024/03/02 16:32:00;;;;;;;;;;;;;;;;;;5041534;28;19916;-77
2024/03/02 16:34:26;;;;;;;;;;;;;;;;;;5046804;28;19951;-86
2024/03/02 16:36:52;;;;;;;;;;;;;;;;;;5047266;28;21066;-80
2024/03/02 16:39:18;;;;;;;;;;;;;;;;;;5048109;28;19959;-78
2024/03/02 16:41:46;;;;;;;;;;;;;;;;;;5048692;28;19929;-78
2024/03/02 16:44:12;;;;;;;;;;;;;;;;;;5047721;28;20007;-77
2024/03/02 16:46:40;;;;;;;;;;;;;;;;;;5047580;28;20423;-77